Time;durP1;ratioP1;P1;durP2;ratioP2;P2;SDS_P1;SDS_P2;PMS_P1;PMS_P2;Temp;Humidity;BMP_temperature;BMP_pressure;BME280_temperature;BME280_humidity;BME280_pressure;Samples;Min_cycle;Max_cycle;Signal;HPM_P1;HPM_P2
2023/02/17 00:00:40;;;;;;;57.22;28.38;;;2.50;99.90;;;;;;2603384;54;20877;31
2023/02/17 00:03:17;;;;;;;61.47;29.07;;;2.40;99.90;;;;;;2603303;54;20026;31
2023/02/17 00:05:52;;;;;;;53.70;28.60;;;2.50;99.90;;;;;;2603199;54;20991;31
2023/02/17 00:08:32;;;;;;;48.10;25.10;;;2.50;99.90;;;;;;2603401;54;20848;31
2023/02/17 00:11:07;;;;;;;48.57;26.03;;;2.60;99.90;;;;;;2602406;54;20970;31
2023/02/17 00:13:42;;;;;;;50.30;24.45;;;2.60;99.90;;;;;;2603288;54;20238;31
2023/02/17 00:16:19;;;;;;;48.70;23.55;;;2.60;99.90;;;;;;2603266;54;20843;31
2023/02/17 00:18:55;;;;;;;44.92;20.98;;;2.60;99.90;;;;;;2621484;46;20583;31
2023/02/17 00:21:35;;;;;;;47.87;24.33;;;2.60;99.90;;;;;;2603286;54;21006;31
2023/02/17 00:24:15;;;;;;;42.03;21.00;;;2.60;99.90;;;;;;2603144;54;20099;31
2023/02/17 00:26:49;;;;;;;49.20;25.30;;;2.60;99.90;;;;;;2603142;54;20022;31
2023/02/17 00:29:24;;;;;;;43.10;22.75;;;2.70;99.90;;;;;;2621428;46;20774;31
2023/02/17 00:31:59;;;;;;;49.37;24.30;;;2.70;99.90;;;;;;2603144;54;20026;31
2023/02/17 00:34:34;;;;;;;47.00;22.40;;;2.70;99.90;;;;;;2603346;54;20855;31
2023/02/17 00:37:11;;;;;;;49.43;24.63;;;2.70;99.90;;;;;;2619840;46;20994;31
2023/02/17 00:39:49;;;;;;;53.97;25.93;;;2.80;99.90;;;;;;2603420;54;20052;31
2023/02/17 00:42:25;;;;;;;61.55;29.65;;;2.80;99.90;;;;;;2701811;39;20689;31
2023/02/17 00:45:02;;;;;;;72.00;33.25;;;2.80;99.90;;;;;;2621143;46;20910;31
2023/02/17 00:47:38;;;;;;;57.80;30.75;;;2.70;99.90;;;;;;2603249;54;20883;31
2023/02/17 00:50:13;;;;;;;61.72;31.92;;;2.70;99.90;;;;;;2602406;54;20030;31
2023/02/17 00:52:51;;;;;;;52.58;27.60;;;2.70;99.90;;;;;;2603139;54;20908;31
2023/02/17 00:55:28;;;;;;;67.70;33.25;;;2.70;99.90;;;;;;2603088;54;20096;31
2023/02/17 00:58:03;;;;;;;67.18;32.17;;;2.70;99.90;;;;;;2621622;46;20089;31
2023/02/17 01:00:38;;;;;;;70.93;34.80;;;2.70;99.90;;;;;;2603098;54;20557;31
2023/02/17 01:03:13;;;;;;;60.42;30.85;;;2.60;99.90;;;;;;2603000;54;20134;31
2023/02/17 01:05:49;;;;;;;59.10;30.80;;;2.70;99.90;;;;;;2603089;54;20052;31
2023/02/17 01:08:26;;;;;;;56.75;30.33;;;2.60;99.90;;;;;;2603038;54;20738;31
2023/02/17 01:11:04;;;;;;;57.22;27.88;;;2.70;99.90;;;;;;2701573;39;20380;31
2023/02/17 01:13:38;;;;;;;63.05;29.95;;;2.60;99.90;;;;;;2603190;54;20033;31
2023/02/17 01:16:18;;;;;;;76.50;36.93;;;2.70;99.90;;;;;;2603027;54;20904;31
2023/02/17 01:18:53;;;;;;;79.65;39.70;;;2.70;99.90;;;;;;2621272;47;20087;31
2023/02/17 01:21:28;;;;;;;80.60;37.03;;;2.70;99.90;;;;;;2621632;47;20089;31
2023/02/17 01:24:04;;;;;;;75.20;35.58;;;2.70;99.90;;;;;;2603009;54;20607;31
2023/02/17 01:26:42;;;;;;;85.43;43.40;;;2.70;99.90;;;;;;2621314;47;20023;31
2023/02/17 01:29:16;;;;;;;88.90;42.80;;;2.80;99.90;;;;;;2621291;47;20034;31
2023/02/17 01:31:50;;;;;;;76.40;36.55;;;2.80;99.90;;;;;;2603055;54;20575;31
2023/02/17 01:34:25;;;;;;;70.40;35.10;;;2.90;99.90;;;;;;2621245;47;20849;31
2023/02/17 01:36:59;;;;;;;74.95;36.30;;;2.80;99.90;;;;;;2603503;54;21095;31
2023/02/17 01:39:35;;;;;;;72.45;37.10;;;2.80;99.90;;;;;;2702330;39;20560;31
2023/02/17 01:42:16;;;;;;;69.25;34.25;;;2.80;99.90;;;;;;2603737;54;20030;31
2023/02/17 01:45:21;;;;;;;80.70;39.50;;;2.90;99.90;;;;;;2603656;54;20030;31
2023/02/17 01:47:58;;;;;;;65.77;30.63;;;2.90;99.90;;;;;;2603855;54;20030;31
2023/02/17 01:50:36;;;;;;;57.80;29.55;;;2.90;99.90;;;;;;2603746;54;20054;31
2023/02/17 01:53:11;;;;;;;57.20;30.13;;;2.90;99.90;;;;;;2603533;54;20023;31
2023/02/17 01:55:46;;;;;;;56.97;28.15;;;3.00;99.90;;;;;;2603732;54;20841;31
2023/02/17 01:58:22;;;;;;;62.50;32.30;;;3.10;99.90;;;;;;2621498;46;20095;31
2023/02/17 02:00:56;;;;;;;77.07;35.53;;;3.10;99.90;;;;;;2603909;54;20026;31
2023/02/17 02:03:31;;;;;;;110.53;51.07;;;3.20;99.90;;;;;;2622298;46;20036;31
2023/02/17 02:06:07;;;;;;;104.00;46.22;;;3.10;99.90;;;;;;2603774;54;20254;31
2023/02/17 02:08:45;;;;;;;107.13;46.53;;;3.10;99.90;;;;;;2622070;46;20875;31
2023/02/17 02:11:20;;;;;;;98.15;43.85;;;3.10;99.90;;;;;;2603785;54;20846;31
2023/02/17 02:13:58;;;;;;;81.18;37.65;;;3.10;99.90;;;;;;2604008;54;20879;31
2023/02/17 02:16:34;;;;;;;89.45;39.70;;;3.10;99.90;;;;;;2603709;54;21905;31
2023/02/17 02:19:18;;;;;;;75.45;36.85;;;3.20;99.90;;;;;;2603501;54;20581;31
2023/02/17 02:22:25;;;;;;;100.53;44.88;;;3.20;99.90;;;;;;2603643;54;20060;31
2023/02/17 02:25:01;;;;;;;;;;;3.20;99.90;;;;;;2607088;46;20034;31
2023/02/17 02:27:52;;;;;;;62.05;29.80;;;3.20;99.90;;;;;;2603536;54;19934;31
2023/02/17 02:30:44;;;;;;;60.50;30.17;;;3.20;99.90;;;;;;2603637;54;20026;31
2023/02/17 02:33:24;;;;;;;59.80;29.10;;;3.30;99.90;;;;;;2621741;46;20025;31
2023/02/17 02:36:01;;;;;;;47.63;26.35;;;3.30;99.90;;;;;;2603567;54;20049;31
2023/02/17 02:38:36;;;;;;;;;;;3.30;99.90;;;;;;2773936;31;20540;31
2023/02/17 02:41:12;;;;;;;53.20;26.63;;;3.40;99.90;;;;;;2603557;54;20752;31
2023/02/17 02:43:44;;;;;;;;;;;3.40;99.90;;;;;;2603894;54;20913;31
2023/02/17 02:46:19;;;;;;;44.30;23.55;;;3.40;99.90;;;;;;2603682;54;20013;31
2023/02/17 02:48:59;;;;;;;48.87;26.43;;;3.50;99.90;;;;;;2603373;54;20027;31
2023/02/17 02:51:33;;;;;;;51.97;26.70;;;3.40;99.90;;;;;;2603268;54;20245;31
2023/02/17 02:54:18;;;;;;;51.90;27.93;;;3.50;99.90;;;;;;2622107;46;20034;31
2023/02/17 02:57:13;;;;;;;55.88;28.52;;;3.60;99.90;;;;;;2603523;54;20026;31
2023/02/17 02:59:59;;;;;;;53.22;27.30;;;3.60;99.90;;;;;;2621960;46;20093;31
2023/02/17 03:02:38;;;;;;;53.75;27.92;;;3.60;99.90;;;;;;2603408;54;20100;31
2023/02/17 03:05:15;;;;;;;52.80;25.67;;;3.70;99.90;;;;;;2603094;54;20029;31
2023/02/17 03:07:53;;;;;;;48.30;24.88;;;3.70;99.90;;;;;;2603586;54;21184;31
2023/02/17 03:10:27;;;;;;;58.20;29.23;;;3.70;99.90;;;;;;2603476;54;20026;31
2023/02/17 03:13:01;;;;;;;54.15;26.55;;;3.70;99.90;;;;;;2621783;46;20863;31
2023/02/17 03:15:36;;;;;;;58.65;30.05;;;3.70;99.90;;;;;;2603284;54;20869;31
2023/02/17 03:18:12;;;;;;;49.25;26.05;;;3.80;99.90;;;;;;2702091;39;20481;31
2023/02/17 03:20:52;;;;;;;41.60;22.65;;;3.80;99.90;;;;;;2603646;54;20029;31
2023/02/17 03:23:27;;;;;;;49.08;27.10;;;3.80;99.90;;;;;;2701843;39;21695;31
2023/02/17 03:26:01;;;;;;;45.17;23.00;;;3.90;99.90;;;;;;2603350;54;20022;31
2023/02/17 03:28:36;;;;;;;53.35;29.70;;;3.90;99.90;;;;;;2603378;54;20852;31
2023/02/17 03:31:10;;;;;;;42.80;22.98;;;3.90;99.90;;;;;;2603299;54;20023;31
2023/02/17 03:33:46;;;;;;;45.83;23.08;;;4.00;99.90;;;;;;2702042;39;20469;31
2023/02/17 03:36:22;;;;;;;45.83;25.88;;;4.00;99.90;;;;;;2603513;54;20058;31
2023/02/17 03:38:57;;;;;;;46.17;25.70;;;4.00;99.90;;;;;;2700972;39;20266;31
2023/02/17 03:41:31;;;;;;;49.53;26.08;;;4.00;99.90;;;;;;2602631;54;20238;31
2023/02/17 03:44:08;;;;;;;40.97;23.38;;;4.00;99.90;;;;;;2603349;54;20692;31
2023/02/17 03:46:42;;;;;;;48.00;26.33;;;4.10;99.90;;;;;;2621607;46;20030;31
2023/02/17 03:49:16;;;;;;;44.00;23.10;;;4.10;99.90;;;;;;2621988;46;20027;31
2023/02/17 03:51:52;;;;;;;47.65;24.55;;;4.10;99.90;;;;;;2603464;54;20863;31
2023/02/17 03:54:26;;;;;;;48.33;26.55;;;4.10;99.90;;;;;;2603439;54;20859;31
2023/02/17 03:57:01;;;;;;;48.58;25.35;;;4.20;99.90;;;;;;2603287;54;20099;31
2023/02/17 03:59:35;;;;;;;45.60;25.30;;;4.20;99.90;;;;;;2621353;46;20877;31
2023/02/17 04:02:09;;;;;;;49.72;25.45;;;4.20;99.90;;;;;;2603293;54;20022;31
2023/02/17 04:04:44;;;;;;;38.40;21.38;;;4.30;99.90;;;;;;2621551;46;19989;31
2023/02/17 04:07:21;;;;;;;37.37;20.93;;;4.20;99.90;;;;;;2603462;54;19943;31
2023/02/17 04:09:55;;;;;;;44.17;23.42;;;4.30;99.90;;;;;;2603156;54;20914;31
2023/02/17 04:12:31;;;;;;;41.92;23.88;;;4.30;99.90;;;;;;2621934;46;20026;31
2023/02/17 04:15:05;;;;;;;37.70;21.00;;;4.30;99.90;;;;;;2603462;54;20030;31
2023/02/17 04:17:39;;;;;;;43.25;24.85;;;4.30;99.90;;;;;;2603334;54;20879;31
2023/02/17 04:20:14;;;;;;;40.05;23.13;;;4.30;99.90;;;;;;2621559;46;20019;31
2023/02/17 04:22:50;;;;;;;35.30;20.52;;;4.30;99.90;;;;;;2603419;54;20033;31
2023/02/17 04:25:25;;;;;;;39.60;21.45;;;4.30;99.90;;;;;;2603343;54;20027;31
2023/02/17 04:27:59;;;;;;;63.83;36.00;;;4.30;99.90;;;;;;2621828;46;20089;31
2023/02/17 04:30:33;;;;;;;60.17;33.38;;;4.30;99.90;;;;;;2603530;54;20038;31
2023/02/17 04:33:08;;;;;;;73.95;43.28;;;4.30;99.90;;;;;;2603203;54;20027;31
2023/02/17 04:35:42;;;;;;;62.38;35.53;;;4.20;99.90;;;;;;2603179;54;20080;31
2023/02/17 04:38:18;;;;;;;61.07;34.37;;;4.30;99.90;;;;;;2621888;46;20151;31
2023/02/17 04:40:53;;;;;;;55.67;29.77;;;4.20;99.90;;;;;;2603128;54;20249;31
2023/02/17 04:43:27;;;;;;;52.92;28.58;;;4.20;99.90;;;;;;2603150;54;20906;31
2023/02/17 04:46:02;;;;;;;51.20;29.95;;;4.10;99.90;;;;;;2621292;46;20867;31
2023/02/17 04:48:35;;;;;;;51.90;29.20;;;4.10;99.90;;;;;;2620603;46;20029;31
2023/02/17 04:51:09;;;;;;;49.72;28.80;;;4.10;99.90;;;;;;2701694;39;21547;31
2023/02/17 04:53:46;;;;;;;44.83;26.00;;;4.10;99.90;;;;;;2603355;54;20030;31
2023/02/17 04:56:20;;;;;;;43.13;24.15;;;4.10;99.90;;;;;;2603507;54;20026;31
2023/02/17 04:58:54;;;;;;;38.20;23.52;;;4.10;99.90;;;;;;2603311;54;20045;31
2023/02/17 05:01:28;;;;;;;37.90;24.35;;;4.10;99.90;;;;;;2603307;54;20032;31
2023/02/17 05:04:02;;;;;;;43.78;24.38;;;4.10;99.90;;;;;;2603317;54;21370;31
2023/02/17 05:06:37;;;;;;;39.43;23.53;;;4.20;99.90;;;;;;2603013;54;20095;31
2023/02/17 05:09:16;;;;;;;38.57;23.03;;;4.20;99.90;;;;;;2603127;54;20247;31
2023/02/17 05:11:54;;;;;;;37.20;22.55;;;4.10;99.90;;;;;;2604048;54;20955;31
2023/02/17 05:14:27;;;;;;;40.47;23.57;;;4.20;99.90;;;;;;2605007;54;20101;31
2023/02/17 05:17:02;;;;;;;36.70;22.42;;;4.20;99.90;;;;;;2605080;54;20053;31
2023/02/17 05:19:36;;;;;;;39.50;24.40;;;4.30;99.90;;;;;;2604793;54;20908;31
2023/02/17 05:22:11;;;;;;;32.43;20.60;;;4.20;99.90;;;;;;2604903;54;20856;31
2023/02/17 05:24:48;;;;;;;38.15;23.15;;;4.30;99.90;;;;;;2604797;54;20875;31
2023/02/17 05:27:23;;;;;;;36.20;19.95;;;4.40;99.90;;;;;;2604780;54;20901;31
2023/02/17 05:29:57;;;;;;;38.05;22.48;;;4.30;99.90;;;;;;2623200;46;20041;31
2023/02/17 05:32:32;;;;;;;35.67;23.80;;;4.50;99.90;;;;;;2604733;54;20034;31
2023/02/17 05:35:10;;;;;;;37.85;22.13;;;4.40;99.90;;;;;;2623495;46;20911;31
2023/02/17 05:37:44;;;;;;;39.67;23.92;;;4.50;99.90;;;;;;2604743;54;20108;31
2023/02/17 05:40:22;;;;;;;38.50;22.05;;;4.50;99.90;;;;;;2703334;38;21683;31
2023/02/17 05:42:58;;;;;;;35.90;21.67;;;4.50;99.90;;;;;;2623511;46;20033;31
2023/02/17 05:45:33;;;;;;;38.00;23.75;;;4.70;99.90;;;;;;2604808;54;20834;31
2023/02/17 05:48:08;;;;;;;44.53;24.77;;;4.70;99.90;;;;;;2604819;54;20026;31
2023/02/17 05:50:45;;;;;;;40.27;22.03;;;4.70;99.90;;;;;;2623489;46;20038;31
2023/02/17 05:53:23;;;;;;;42.72;23.80;;;4.80;99.90;;;;;;2604671;54;20256;31
2023/02/17 05:56:00;;;;;;;37.15;22.15;;;4.80;99.90;;;;;;2604913;54;20027;31
2023/02/17 05:58:35;;;;;;;43.40;24.50;;;4.90;99.90;;;;;;2623358;46;20033;31
2023/02/17 06:01:10;;;;;;;41.80;25.05;;;4.90;99.90;;;;;;2604567;54;20053;31
2023/02/17 06:03:45;;;;;;;39.17;25.17;;;4.90;99.90;;;;;;2604624;54;19942;31
2023/02/17 06:06:19;;;;;;;38.67;23.67;;;5.00;99.90;;;;;;2623189;46;20877;31
2023/02/17 06:08:53;;;;;;;40.15;21.65;;;5.00;99.90;;;;;;2604594;54;20882;31
2023/02/17 06:11:31;;;;;;;41.43;23.80;;;5.10;99.90;;;;;;2604500;54;20034;31
2023/02/17 06:14:06;;;;;;;38.00;22.80;;;5.10;99.90;;;;;;2623257;46;20079;31
2023/02/17 06:16:44;;;;;;;41.35;25.17;;;5.10;99.90;;;;;;2623050;46;20034;31
2023/02/17 06:19:19;;;;;;;44.97;26.05;;;5.20;99.90;;;;;;2604676;54;20022;31
2023/02/17 06:21:54;;;;;;;44.85;25.20;;;5.20;99.90;;;;;;2703129;38;20484;31
2023/02/17 06:24:29;;;;;;;43.53;25.95;;;5.20;99.90;;;;;;2603698;54;20850;31
2023/02/17 06:27:06;;;;;;;40.30;24.85;;;5.20;99.90;;;;;;2603542;54;20961;31
2023/02/17 06:29:40;;;;;;;43.20;24.52;;;5.20;99.90;;;;;;2621790;46;20503;31
2023/02/17 06:32:14;;;;;;;47.67;27.42;;;5.30;99.90;;;;;;2603587;54;19930;31
2023/02/17 06:34:48;;;;;;;42.70;25.58;;;5.30;99.90;;;;;;2603489;54;19958;31
2023/02/17 06:37:22;;;;;;;44.60;27.15;;;5.30;99.90;;;;;;2621868;46;20953;31
2023/02/17 06:39:56;;;;;;;47.65;27.75;;;5.30;99.90;;;;;;2603603;54;20798;31
2023/02/17 06:42:34;;;;;;;46.45;28.40;;;5.40;99.90;;;;;;2621925;46;21353;31
2023/02/17 06:45:09;;;;;;;42.00;26.20;;;5.40;99.90;;;;;;2622073;46;20039;31
2023/02/17 06:47:43;;;;;;;46.95;28.65;;;5.40;99.90;;;;;;2603649;54;20093;31
2023/02/17 06:50:17;;;;;;;44.20;27.52;;;5.40;99.90;;;;;;2603450;54;20053;31
2023/02/17 06:52:56;;;;;;;44.42;27.55;;;5.40;99.90;;;;;;2603761;54;20834;31
2023/02/17 06:55:30;;;;;;;42.80;25.65;;;5.40;99.90;;;;;;2622057;46;20608;31
2023/02/17 06:58:07;;;;;;;46.95;27.55;;;5.50;99.90;;;;;;2603706;54;20123;31
2023/02/17 07:00:43;;;;;;;48.92;27.67;;;5.50;99.90;;;;;;2603611;54;20056;31
2023/02/17 07:03:18;;;;;;;46.60;28.65;;;5.50;99.90;;;;;;2603677;54;20089;31
2023/02/17 07:05:55;;;;;;;44.53;25.02;;;5.50;99.90;;;;;;2603634;54;25055;31
2023/02/17 07:08:29;;;;;;;46.08;25.92;;;5.60;99.90;;;;;;2603638;54;20022;31
2023/02/17 07:11:07;;;;;;;47.13;27.42;;;5.60;99.90;;;;;;2603227;54;20077;31
2023/02/17 07:13:43;;;;;;;44.70;26.45;;;5.60;99.90;;;;;;2621768;46;20160;31
2023/02/17 07:16:18;;;;;;;44.73;25.43;;;5.60;99.90;;;;;;2603707;54;20012;31
2023/02/17 07:18:55;;;;;;;46.00;27.08;;;5.70;99.90;;;;;;2603623;54;20030;31
2023/02/17 07:21:29;;;;;;;48.40;27.48;;;5.70;99.90;;;;;;2603304;54;20100;31
2023/02/17 07:24:03;;;;;;;43.90;25.95;;;5.70;99.90;;;;;;2603500;54;20557;31
2023/02/17 07:26:38;;;;;;;43.05;26.00;;;5.70;99.90;;;;;;2603374;54;20120;31
2023/02/17 07:29:15;;;;;;;43.63;26.40;;;5.80;99.90;;;;;;2702130;39;21030;31
2023/02/17 07:31:50;;;;;;;42.45;24.92;;;5.80;99.90;;;;;;2603708;54;20026;31
2023/02/17 07:34:24;;;;;;;40.28;24.13;;;5.80;99.90;;;;;;2603537;54;20022;31
2023/02/17 07:36:58;;;;;;;41.40;25.45;;;5.80;99.90;;;;;;2603671;54;20053;31
2023/02/17 07:39:32;;;;;;;42.67;26.87;;;5.90;99.90;;;;;;2603564;54;20089;31
2023/02/17 07:42:08;;;;;;;44.55;25.83;;;5.90;99.90;;;;;;2603402;54;20904;31
2023/02/17 07:44:45;;;;;;;;;;;5.90;99.90;;;;;;2622402;46;20840;31
2023/02/17 07:47:19;;;;;;;44.42;26.65;;;5.90;99.90;;;;;;2621855;46;19934;31
2023/02/17 07:49:53;;;;;;;43.22;27.73;;;6.00;99.90;;;;;;2622172;46;20793;31
2023/02/17 07:52:27;;;;;;;45.63;26.70;;;6.00;99.90;;;;;;2603286;54;20095;31
2023/02/17 07:55:01;;;;;;;42.57;25.43;;;6.00;99.90;;;;;;2773292;31;21647;31
2023/02/17 07:57:35;;;;;;;40.60;24.60;;;6.00;99.90;;;;;;2603524;54;20033;31
2023/02/17 08:00:13;;;;;;;39.97;24.83;;;6.10;99.90;;;;;;2603473;54;20606;31
2023/02/17 08:02:47;;;;;;;40.25;24.10;;;6.10;99.90;;;;;;2603423;54;20132;31
2023/02/17 08:05:21;;;;;;;38.03;24.23;;;6.20;99.90;;;;;;2791927;31;20608;31
2023/02/17 08:13:18;;;;;;;43.08;25.42;;;6.20;99.90;;;;;;2603319;54;19957;31
2023/02/17 08:13:35;;;;;;;;;;;6.30;99.90;;;;;;2622383;46;20867;31
2023/02/17 08:16:12;;;;;;;38.90;23.55;;;6.40;99.90;;;;;;2603344;54;19943;31
2023/02/17 08:18:47;;;;;;;41.83;23.90;;;6.50;99.90;;;;;;2603496;54;20037;31
2023/02/17 08:21:24;;;;;;;36.13;22.92;;;6.40;99.90;;;;;;2603307;54;20029;31
2023/02/17 08:23:57;;;;;;;38.60;24.85;;;6.50;99.90;;;;;;2603597;54;20660;31
2023/02/17 08:26:31;;;;;;;38.22;24.45;;;6.50;99.90;;;;;;2603285;54;20030;31
2023/02/17 08:29:05;;;;;;;39.67;24.77;;;6.60;99.90;;;;;;2720496;39;20560;31
2023/02/17 08:31:41;;;;;;;37.83;24.25;;;6.60;99.90;;;;;;2603401;54;20053;31
2023/02/17 08:34:16;;;;;;;36.03;23.38;;;6.70;99.90;;;;;;2603308;54;20028;31
2023/02/17 08:36:51;;;;;;;37.03;24.10;;;6.70;99.90;;;;;;2603216;54;20034;31
2023/02/17 08:39:28;;;;;;;39.55;24.02;;;6.80;99.90;;;;;;2621833;46;20026;31
2023/02/17 08:42:03;;;;;;;41.70;26.33;;;6.80;99.90;;;;;;2603322;54;20794;31
2023/02/17 08:44:37;;;;;;;38.10;23.38;;;6.80;99.90;;;;;;2621744;46;20026;31
2023/02/17 08:47:14;;;;;;;39.10;23.70;;;6.90;99.90;;;;;;2621616;46;20030;31
2023/02/17 08:49:49;;;;;;;39.47;24.40;;;6.90;99.90;;;;;;2603057;54;20978;31
2023/02/17 08:52:23;;;;;;;37.15;24.38;;;6.90;99.90;;;;;;2603412;54;20026;31
2023/02/17 08:54:57;;;;;;;36.30;20.88;;;7.00;99.90;;;;;;2603225;54;20027;31
2023/02/17 08:57:31;;;;;;;39.03;23.35;;;7.00;99.90;;;;;;2603211;54;20124;31
2023/02/17 09:00:07;;;;;;;38.25;23.35;;;7.00;99.90;;;;;;2603149;54;20037;31
2023/02/17 09:02:45;;;;;;;35.35;22.25;;;7.10;99.90;;;;;;2621639;46;20022;31
2023/02/17 09:05:19;;;;;;;35.73;23.33;;;7.20;99.90;;;;;;2621959;46;20891;31
2023/02/17 09:07:53;;;;;;;36.95;22.60;;;7.20;99.90;;;;;;2603196;54;20883;31
2023/02/17 09:10:27;;;;;;;35.25;23.02;;;7.20;99.90;;;;;;2603467;54;20667;31
2023/02/17 09:13:02;;;;;;;35.60;21.23;;;7.20;99.90;;;;;;2621916;47;20026;31
2023/02/17 09:15:36;;;;;;;40.30;21.65;;;7.30;99.90;;;;;;2603333;54;20089;31
2023/02/17 09:18:12;;;;;;;34.10;21.40;;;7.40;99.90;;;;;;2603166;54;20779;31
2023/02/17 09:20:47;;;;;;;29.52;19.38;;;7.40;99.90;;;;;;2603368;54;21528;31
2023/02/17 09:23:21;;;;;;;35.95;23.63;;;7.40;99.90;;;;;;2621697;47;20037;31
2023/02/17 09:26:04;;;;;;;37.38;22.58;;;7.40;99.90;;;;;;2621490;47;20026;31
2023/02/17 09:28:38;;;;;;;38.65;22.73;;;7.40;99.90;;;;;;2603117;54;20860;31
2023/02/17 09:31:12;;;;;;;30.15;18.55;;;7.40;99.90;;;;;;2603467;54;20566;31
2023/02/17 09:33:50;;;;;;;35.80;22.83;;;7.50;99.90;;;;;;2603385;54;20033;31
2023/02/17 09:36:24;;;;;;;30.40;20.42;;;7.50;99.90;;;;;;2602295;54;20024;31
2023/02/17 09:39:00;;;;;;;31.90;20.47;;;7.50;99.90;;;;;;2701462;39;20531;31
2023/02/17 09:41:39;;;;;;;33.40;20.73;;;7.50;99.90;;;;;;2603005;54;20238;31
2023/02/17 09:44:18;;;;;;;31.85;21.05;;;7.50;99.90;;;;;;2603358;54;20061;31
2023/02/17 09:46:56;;;;;;;26.35;19.10;;;7.50;99.90;;;;;;2603015;54;20056;31
2023/02/17 09:49:40;;;;;;;33.85;21.30;;;7.60;99.90;;;;;;2602956;54;20026;31
2023/02/17 09:52:16;;;;;;;33.80;21.15;;;7.60;99.90;;;;;;2602958;54;20030;31
2023/02/17 09:55:00;;;;;;;30.15;19.77;;;7.60;99.90;;;;;;2620353;47;20030;31
2023/02/17 09:57:36;;;;;;;31.27;19.50;;;7.60;99.90;;;;;;2602859;54;20018;31
2023/02/17 10:00:12;;;;;;;25.55;18.05;;;7.60;99.90;;;;;;2603933;54;19935;31
2023/02/17 10:02:49;;;;;;;30.42;19.90;;;7.70;99.90;;;;;;2603630;54;20884;31
2023/02/17 10:05:27;;;;;;;29.57;19.10;;;7.70;99.90;;;;;;2720817;39;20464;31
2023/02/17 10:08:04;;;;;;;28.10;17.53;;;7.70;99.90;;;;;;2622503;46;20246;31
2023/02/17 10:10:41;;;;;;;25.23;17.70;;;7.70;99.90;;;;;;2603737;54;20046;31
2023/02/17 10:13:16;;;;;;;28.27;18.13;;;7.80;99.90;;;;;;2622491;46;20026;31
2023/02/17 10:15:52;;;;;;;27.30;17.80;;;7.80;99.90;;;;;;2603694;54;20825;31
2023/02/17 10:18:30;;;;;;;27.80;17.97;;;7.90;99.90;;;;;;2603815;54;20026;31
2023/02/17 10:21:10;;;;;;;26.05;17.40;;;7.90;99.90;;;;;;2622267;46;20034;31
2023/02/17 10:23:46;;;;;;;28.55;17.27;;;7.90;99.90;;;;;;2603628;54;20034;31
2023/02/17 10:26:24;;;;;;;25.23;17.00;;;7.90;99.90;;;;;;2603882;54;20030;31
2023/02/17 10:29:00;;;;;;;24.70;15.52;;;7.90;99.90;;;;;;2622070;46;20120;31
2023/02/17 10:31:41;;;;;;;23.23;15.82;;;8.00;99.90;;;;;;2603960;54;20037;31
2023/02/17 10:34:22;;;;;;;25.58;16.63;;;8.00;99.90;;;;;;2622294;46;20876;31
2023/02/17 10:37:01;;;;;;;26.80;17.45;;;8.00;99.90;;;;;;2603876;54;20149;31
2023/02/17 10:39:45;;;;;;;26.88;17.30;;;8.10;99.90;;;;;;2603692;54;20945;31
2023/02/17 10:42:23;;;;;;;24.90;15.60;;;8.10;99.90;;;;;;2603681;54;20027;31
2023/02/17 10:45:00;;;;;;;24.05;16.15;;;8.10;99.90;;;;;;2622106;46;20081;31
2023/02/17 10:47:35;;;;;;;27.50;17.17;;;8.20;99.90;;;;;;2603662;54;20112;31
2023/02/17 10:50:15;;;;;;;24.23;15.70;;;8.20;99.90;;;;;;2603789;54;20077;31
2023/02/17 10:52:53;;;;;;;27.05;17.90;;;8.20;99.90;;;;;;2603858;54;19989;31
2023/02/17 10:55:35;;;;;;;24.58;17.10;;;8.30;99.90;;;;;;2603945;54;20890;31
2023/02/17 10:58:15;;;;;;;25.90;16.88;;;8.30;99.90;;;;;;2622419;46;20022;31
2023/02/17 11:00:51;;;;;;;24.92;15.50;;;8.30;99.90;;;;;;2715406;39;20473;31
2023/02/17 11:03:26;;;;;;;28.00;16.73;;;8.40;99.90;;;;;;2603599;54;20053;31
2023/02/17 11:06:01;;;;;;;23.25;15.60;;;8.40;99.90;;;;;;2603946;54;20803;31
2023/02/17 11:08:41;;;;;;;25.25;16.55;;;8.40;99.90;;;;;;2603696;54;20156;31
2023/02/17 11:11:18;;;;;;;24.10;16.30;;;8.40;99.90;;;;;;2603358;54;20026;31
2023/02/17 11:14:03;;;;;;;25.10;17.10;;;8.50;99.90;;;;;;2603799;54;20026;31
2023/02/17 11:16:39;;;;;;;23.52;16.35;;;8.50;99.90;;;;;;2603794;54;20049;31
2023/02/17 11:19:22;;;;;;;23.15;16.15;;;8.60;99.90;;;;;;2603811;54;20035;31
2023/02/17 11:22:00;;;;;;;24.13;15.98;;;8.60;99.90;;;;;;2621963;46;20022;31
2023/02/17 11:24:34;;;;;;;22.40;16.45;;;8.60;99.90;;;;;;2603500;54;20874;31
2023/02/17 11:27:11;;;;;;;24.02;15.95;;;8.60;99.90;;;;;;2720441;39;20473;31
2023/02/17 11:29:46;;;;;;;23.57;16.40;;;8.60;99.90;;;;;;2603510;54;20022;31
2023/02/17 11:32:20;;;;;;;21.70;15.50;;;8.70;99.90;;;;;;2603836;54;20250;31
2023/02/17 11:34:59;;;;;;;22.83;16.07;;;8.70;99.90;;;;;;2603408;54;20029;31
2023/02/17 11:37:35;;;;;;;23.77;15.87;;;8.70;99.90;;;;;;2622302;46;21048;31
2023/02/17 11:40:19;;;;;;;21.58;14.73;;;8.70;99.90;;;;;;2622149;46;21381;31
2023/02/17 11:43:02;;;;;;;24.23;15.20;;;8.80;99.90;;;;;;2603799;54;20556;31
2023/02/17 11:45:39;;;;;;;25.25;15.25;;;8.80;99.90;;;;;;2603548;54;20086;31
2023/02/17 11:48:38;;;;;;;20.20;14.27;;;8.90;99.90;;;;;;2603525;54;20899;31
2023/02/17 11:51:12;;;;;;;20.25;14.93;;;8.90;99.90;;;;;;2603571;54;20026;31
2023/02/17 11:53:51;;;;;;;21.02;14.38;;;8.90;99.90;;;;;;2622365;46;20910;31
2023/02/17 11:56:25;;;;;;;19.75;13.77;;;8.90;99.90;;;;;;2603731;54;20840;31
2023/02/17 11:59:27;;;;;;;20.30;13.32;;;9.00;99.90;;;;;;2603462;54;20890;31
2023/02/17 12:02:14;;;;;;;18.77;12.70;;;9.00;99.90;;;;;;2701958;39;20579;31
2023/02/17 12:04:56;;;;;;;19.92;12.27;;;9.10;99.90;;;;;;2603472;54;20026;31
2023/02/17 12:07:48;;;;;;;15.57;11.80;;;9.10;99.90;;;;;;2603424;54;20904;31
2023/02/17 12:10:26;;;;;;;14.80;10.35;;;9.20;99.90;;;;;;2702261;39;21006;31
2023/02/17 12:13:05;;;;;;;15.48;10.93;;;9.30;99.90;;;;;;2603720;54;20180;31
2023/02/17 12:15:53;;;;;;;14.48;9.73;;;9.30;99.90;;;;;;2621811;46;20810;31
2023/02/17 12:18:37;;;;;;;12.80;9.00;;;9.40;99.90;;;;;;2603435;54;20557;31
2023/02/17 12:21:13;;;;;;;12.50;9.13;;;9.50;99.90;;;;;;2603049;54;20089;31
2023/02/17 12:23:50;;;;;;;;;;;9.50;99.90;;;;;;2622571;46;20891;31
2023/02/17 12:26:28;;;;;;;9.80;7.00;;;9.60;99.90;;;;;;2603415;54;20008;31
2023/02/17 12:29:14;;;;;;;11.43;7.70;;;9.60;99.90;;;;;;2622017;46;20844;31
2023/02/17 12:32:04;;;;;;;10.47;7.80;;;9.60;99.90;;;;;;2603359;54;20089;31
2023/02/17 12:34:40;;;;;;;12.05;8.55;;;9.70;99.90;;;;;;2621646;46;20105;31
2023/02/17 12:37:16;;;;;;;;;;;9.70;99.90;;;;;;2603669;54;20038;31
2023/02/17 12:39:54;;;;;;;12.25;7.25;;;9.70;99.90;;;;;;2603187;54;20720;31
2023/02/17 12:42:31;;;;;;;10.63;7.15;;;9.70;99.90;;;;;;2603324;54;20026;31
2023/02/17 12:45:06;;;;;;;11.20;7.90;;;9.70;99.90;;;;;;2603244;54;20149;31
2023/02/17 12:47:46;;;;;;;12.65;7.63;;;9.70;99.90;;;;;;2621511;46;20026;31
2023/02/17 12:50:23;;;;;;;10.10;7.47;;;9.70;99.90;;;;;;2603462;54;20092;31
2023/02/17 12:52:59;;;;;;;12.27;7.75;;;9.70;99.90;;;;;;2603383;54;20570;31
2023/02/17 12:55:38;;;;;;;13.07;8.10;;;9.70;99.90;;;;;;2603271;54;20038;31
2023/02/17 12:58:14;;;;;;;12.25;8.35;;;9.70;99.90;;;;;;2603353;54;20652;31
2023/02/17 13:00:50;;;;;;;11.02;7.43;;;9.70;99.90;;;;;;2621351;46;20959;31
2023/02/17 13:03:26;;;;;;;11.65;7.82;;;9.70;99.90;;;;;;2603260;54;20032;31
2023/02/17 13:06:00;;;;;;;10.27;7.38;;;9.70;99.90;;;;;;2603283;54;20574;31
2023/02/17 13:08:37;;;;;;;14.13;8.70;;;9.70;99.90;;;;;;2621671;46;20038;31
2023/02/17 13:11:13;;;;;;;11.88;9.15;;;9.70;99.90;;;;;;2621669;46;20028;31
2023/02/17 13:13:48;;;;;;;14.68;10.57;;;9.70;99.90;;;;;;2603145;54;19950;31
2023/02/17 13:16:23;;;;;;;12.82;9.13;;;9.70;99.90;;;;;;2622115;47;20877;31
2023/02/17 13:19:08;;;;;;;14.35;10.25;;;9.70;99.90;;;;;;2603085;54;20034;31
2023/02/17 13:21:53;;;;;;;13.40;10.30;;;9.70;99.90;;;;;;2719815;39;21701;31
2023/02/17 13:24:35;;;;;;;13.80;9.90;;;9.70;99.90;;;;;;2603199;54;20871;31
2023/02/17 13:27:14;;;;;;;15.68;10.65;;;9.70;99.90;;;;;;2603072;54;20037;31
2023/02/17 13:29:48;;;;;;;17.58;11.10;;;9.70;99.90;;;;;;2603305;54;20821;31
2023/02/17 13:32:28;;;;;;;14.75;10.48;;;9.60;99.90;;;;;;2603285;54;20081;31
2023/02/17 13:35:08;;;;;;;15.30;11.50;;;9.60;99.90;;;;;;2604077;54;19935;31
2023/02/17 13:37:44;;;;;;;15.20;11.00;;;9.60;99.90;;;;;;2622192;46;20034;31
2023/02/17 13:40:36;;;;;;;17.02;12.38;;;9.60;99.90;;;;;;2604059;54;20041;31
2023/02/17 13:45:43;;;;;;;15.63;11.85;;;9.50;99.90;;;;;;2603264;54;20039;31